createdAt,value
2023-12-23T00:00:07.376Z,0.47
2023-12-23T00:03:35.419Z,0.44
2023-12-23T00:07:04.370Z,0.42
2023-12-23T00:10:32.698Z,0.41
2023-12-23T00:13:59.971Z,0.42
2023-12-23T00:17:27.249Z,0.42
2023-12-23T00:20:55.688Z,0.44
2023-12-23T00:24:25.454Z,0.44
2023-12-23T00:27:51.146Z,0.42
2023-12-23T00:31:18.424Z,0.40
2023-12-23T00:34:46.086Z,0.41
2023-12-23T00:38:13.958Z,0.42
2023-12-23T00:41:44.192Z,0.42
2023-12-23T00:45:11.591Z,0.44
2023-12-23T00:48:39.234Z,0.45
2023-12-23T00:52:07.010Z,0.47
2023-12-23T00:55:33.994Z,0.49
2023-12-23T00:59:00.781Z,0.50
2023-12-23T01:02:27.665Z,0.54
2023-12-23T01:05:55.017Z,0.56
2023-12-23T01:09:21.882Z,0.60
2023-12-23T01:12:48.643Z,0.63
2023-12-23T01:16:15.557Z,0.69
2023-12-23T01:19:42.425Z,0.75
2023-12-23T01:23:09.227Z,0.80
2023-12-23T01:26:36.124Z,0.83
2023-12-23T01:30:04.038Z,0.85
2023-12-23T01:33:31.297Z,0.84
2023-12-23T01:36:58.429Z,0.85
2023-12-23T01:40:26.693Z,0.85
2023-12-23T01:43:53.425Z,0.85
2023-12-23T01:47:20.756Z,0.83
2023-12-23T01:50:47.648Z,0.84
2023-12-23T01:54:14.905Z,0.84
2023-12-23T01:57:42.652Z,0.84
2023-12-23T02:01:10.282Z,0.85
2023-12-23T02:04:37.372Z,0.83
2023-12-23T02:08:04.793Z,0.81
2023-12-23T02:11:38.584Z,0.79
2023-12-23T02:15:10.781Z,0.76
2023-12-23T02:18:37.999Z,0.75
2023-12-23T02:22:04.920Z,0.77
2023-12-23T02:25:31.904Z,0.79
2023-12-23T02:29:00.635Z,0.81
2023-12-23T02:32:29.547Z,0.84
2023-12-23T02:35:56.762Z,0.85
2023-12-23T02:39:23.639Z,0.86
2023-12-23T02:42:53.136Z,0.87
2023-12-23T02:46:20.241Z,0.88
2023-12-23T02:49:47.122Z,0.89
2023-12-23T02:53:13.981Z,0.92
2023-12-23T02:56:41.099Z,0.93
2023-12-23T03:00:10.199Z,0.92
2023-12-23T03:03:37.393Z,0.91
2023-12-23T03:07:04.303Z,0.91
2023-12-23T03:10:31.045Z,0.92
2023-12-23T03:13:58.423Z,0.92
2023-12-23T03:17:26.753Z,0.91
2023-12-23T03:20:53.809Z,0.88
2023-12-23T03:24:20.733Z,0.84
2023-12-23T03:27:47.526Z,0.81
2023-12-23T03:31:14.310Z,0.79
2023-12-23T03:34:42.394Z,0.75
2023-12-23T03:38:09.363Z,0.73
2023-12-23T03:41:36.196Z,0.73
2023-12-23T03:45:03.085Z,0.73
2023-12-23T03:48:31.055Z,0.73
2023-12-23T03:51:58.143Z,0.73
2023-12-23T03:55:30.384Z,0.71
2023-12-23T03:58:59.551Z,0.67
2023-12-23T04:02:26.370Z,0.63
2023-12-23T04:05:53.190Z,0.59
2023-12-23T04:09:21.558Z,0.53
2023-12-23T04:12:48.468Z,0.50
2023-12-23T04:16:15.977Z,0.48
2023-12-23T04:19:42.959Z,0.45
2023-12-23T04:23:09.926Z,0.45
2023-12-23T04:26:38.469Z,0.44
2023-12-23T04:30:06.108Z,0.43
2023-12-23T04:33:35.690Z,0.41
2023-12-23T04:37:02.542Z,0.39
2023-12-23T04:40:29.792Z,0.39
2023-12-23T04:43:57.114Z,0.39
2023-12-23T04:47:24.236Z,0.40
2023-12-23T04:50:51.391Z,0.41
2023-12-23T04:54:18.883Z,0.39
2023-12-23T04:57:45.609Z,0.37
2023-12-23T05:01:12.460Z,0.35
2023-12-23T05:04:39.394Z,0.35
2023-12-23T05:08:08.671Z,0.36
2023-12-23T05:11:35.454Z,0.34
2023-12-23T05:15:02.252Z,0.34
2023-12-23T05:18:29.289Z,0.32
2023-12-23T05:21:58.611Z,0.31
2023-12-23T05:25:25.475Z,0.31
2023-12-23T05:28:53.172Z,0.30
2023-12-23T05:32:20.615Z,0.29
2023-12-23T05:35:47.576Z,0.25
2023-12-23T05:39:14.397Z,0.22
2023-12-23T05:42:41.058Z,0.23
2023-12-23T05:46:07.878Z,0.25
2023-12-23T05:49:34.737Z,0.25
2023-12-23T05:53:01.534Z,0.23
2023-12-23T05:56:28.418Z,0.22
2023-12-23T06:00:08.288Z,0.23
2023-12-23T06:03:39.819Z,0.26
2023-12-23T06:07:07.131Z,0.29
2023-12-23T06:10:43.640Z,0.33
2023-12-23T06:14:17.644Z,0.35
2023-12-23T06:17:44.545Z,0.40
2023-12-23T06:21:11.458Z,0.44
2023-12-23T06:24:38.115Z,0.45
2023-12-23T06:28:06.135Z,0.40
2023-12-23T06:31:32.803Z,0.36
2023-12-23T06:34:59.764Z,0.31
2023-12-23T06:38:26.650Z,0.26
2023-12-23T06:41:53.772Z,0.21
2023-12-23T06:45:20.577Z,0.17
2023-12-23T06:48:47.513Z,0.15
2023-12-23T06:52:14.897Z,0.14
2023-12-23T06:55:41.955Z,0.12
2023-12-23T06:59:11.269Z,0.12
2023-12-23T07:02:38.131Z,0.12
2023-12-23T07:06:05.388Z,0.15
2023-12-23T07:09:32.281Z,0.19
2023-12-23T07:12:59.167Z,0.26
2023-12-23T07:16:26.067Z,0.31
2023-12-23T07:19:52.861Z,0.33
2023-12-23T07:23:19.628Z,0.36
2023-12-23T07:26:46.367Z,0.39
2023-12-23T07:30:16.100Z,0.40
2023-12-23T07:33:45.099Z,0.41
2023-12-23T07:37:12.646Z,0.44
2023-12-23T07:40:40.375Z,0.46
2023-12-23T07:44:07.540Z,0.50
2023-12-23T07:47:34.329Z,0.54
2023-12-23T07:51:01.132Z,0.59
2023-12-23T07:54:28.637Z,0.64
2023-12-23T07:57:55.425Z,0.72
2023-12-23T08:01:22.760Z,0.82
2023-12-23T08:04:49.638Z,0.91
2023-12-23T08:08:16.607Z,1.00
2023-12-23T08:11:46.717Z,1.10
2023-12-23T08:15:14.158Z,1.17
2023-12-23T08:18:41.725Z,1.24
2023-12-23T08:22:08.884Z,1.31
2023-12-23T08:25:36.068Z,1.42
2023-12-23T08:29:02.818Z,1.53
2023-12-23T08:32:30.323Z,1.61
2023-12-23T08:35:57.324Z,1.68
2023-12-23T08:39:24.186Z,1.75
2023-12-23T08:42:51.481Z,1.82
2023-12-23T08:46:18.590Z,1.89
2023-12-23T08:49:45.437Z,1.99
2023-12-23T08:53:14.435Z,2.11
2023-12-23T08:56:42.919Z,2.22
2023-12-23T09:00:12.563Z,2.37
2023-12-23T09:03:38.850Z,2.51
2023-12-23T09:07:09.773Z,2.57
2023-12-23T09:10:41.002Z,2.59
2023-12-23T09:14:08.869Z,2.64
2023-12-23T09:17:37.976Z,2.71
2023-12-23T09:21:05.004Z,2.76
2023-12-23T09:24:31.846Z,2.79
2023-12-23T09:27:58.774Z,2.78
2023-12-23T09:31:25.622Z,2.77
2023-12-23T09:34:54.305Z,2.78
2023-12-23T09:38:21.549Z,2.81
2023-12-23T09:41:49.499Z,2.83
2023-12-23T09:45:18.034Z,2.87
2023-12-23T09:48:45.117Z,2.94
2023-12-23T09:52:13.441Z,2.97
2023-12-23T09:55:41.742Z,2.99
2023-12-23T09:59:11.654Z,3.05
2023-12-23T10:02:40.078Z,3.12
2023-12-23T10:06:08.615Z,3.15
2023-12-23T10:09:35.626Z,3.13
2023-12-23T10:13:03.203Z,3.12
2023-12-23T10:16:29.904Z,3.12
2023-12-23T10:19:57.772Z,3.10
2023-12-23T10:23:24.680Z,3.09
2023-12-23T10:26:51.444Z,3.08
2023-12-23T10:30:20.295Z,3.08
2023-12-23T10:33:54.014Z,3.10
2023-12-23T10:37:21.708Z,3.14
2023-12-23T10:40:53.866Z,3.20
2023-12-23T10:44:22.488Z,3.25
2023-12-23T10:47:51.366Z,3.30
2023-12-23T10:51:20.223Z,3.36
2023-12-23T10:54:48.025Z,3.41
2023-12-23T10:58:15.937Z,3.48
2023-12-23T11:01:44.877Z,3.50
2023-12-23T11:05:15.223Z,3.49
2023-12-23T11:08:44.541Z,3.49
2023-12-23T11:12:12.277Z,3.49
2023-12-23T11:15:41.657Z,3.50
2023-12-23T11:19:08.580Z,3.57
2023-12-23T11:22:42.121Z,3.71
2023-12-23T11:26:43.186Z,3.81
2023-12-23T11:30:12.586Z,3.93
2023-12-23T11:33:40.657Z,3.99
2023-12-23T11:37:08.243Z,4.02
2023-12-23T11:40:34.930Z,4.06
2023-12-23T11:44:03.578Z,4.06
2023-12-23T11:47:31.112Z,4.03
2023-12-23T11:51:00.129Z,3.97
2023-12-23T11:54:27.303Z,3.90
2023-12-23T11:57:54.350Z,3.85
2023-12-23T12:01:22.278Z,3.78
2023-12-23T12:04:49.187Z,3.72
2023-12-23T12:08:17.112Z,3.66
2023-12-23T12:11:45.140Z,3.55
2023-12-23T12:15:13.212Z,3.50
2023-12-23T12:18:41.632Z,3.43
2023-12-23T12:22:08.756Z,3.37
2023-12-23T12:25:35.558Z,3.31
2023-12-23T12:29:02.378Z,3.26
2023-12-23T12:32:29.484Z,3.18
2023-12-23T12:35:56.244Z,3.11
2023-12-23T12:39:24.228Z,3.00
2023-12-23T12:42:53.089Z,2.90
2023-12-23T12:46:20.683Z,2.82
2023-12-23T12:49:59.482Z,2.73
2023-12-23T12:53:33.488Z,2.64
2023-12-23T12:57:00.461Z,2.56
2023-12-23T13:00:27.768Z,2.46
2023-12-23T13:03:54.813Z,2.34
2023-12-23T13:07:22.312Z,2.24
2023-12-23T13:10:49.281Z,2.14
2023-12-23T13:14:16.695Z,2.05
2023-12-23T13:17:43.744Z,2.01
2023-12-23T13:21:10.873Z,1.98
2023-12-23T13:24:37.475Z,1.97
2023-12-23T13:28:04.349Z,1.94
2023-12-23T13:31:31.246Z,1.94
2023-12-23T13:35:00.951Z,1.95
2023-12-23T13:38:31.312Z,1.96
2023-12-23T13:41:58.112Z,1.94
2023-12-23T13:45:25.035Z,1.91
2023-12-23T13:48:51.886Z,1.91
2023-12-23T13:52:19.482Z,1.90
2023-12-23T13:55:47.792Z,1.85
2023-12-23T13:59:14.625Z,1.81
2023-12-23T14:02:41.374Z,1.79
2023-12-23T14:06:08.914Z,1.77
2023-12-23T14:09:37.259Z,1.75
2023-12-23T14:13:04.167Z,1.71
2023-12-23T14:16:32.141Z,1.65
2023-12-23T14:19:59.096Z,1.58
2023-12-23T14:23:27.845Z,1.54
2023-12-23T14:26:58.534Z,1.49
2023-12-23T14:30:25.915Z,1.44
2023-12-23T14:33:53.665Z,1.38
2023-12-23T14:37:22.113Z,1.33
2023-12-23T14:40:49.506Z,1.27
2023-12-23T14:44:16.193Z,1.21
2023-12-23T14:47:46.128Z,1.15
2023-12-23T14:51:13.039Z,1.10
2023-12-23T14:54:39.653Z,1.06
2023-12-23T14:58:06.536Z,1.00
2023-12-23T15:01:36.625Z,0.96
2023-12-23T15:05:03.781Z,0.94
2023-12-23T15:08:30.671Z,0.91
2023-12-23T15:11:57.661Z,0.90
2023-12-23T15:15:25.104Z,0.89
2023-12-23T15:18:53.773Z,0.88
2023-12-23T15:22:22.028Z,0.87
2023-12-23T15:25:48.852Z,0.86
2023-12-23T15:29:16.669Z,0.85
2023-12-23T15:32:43.640Z,0.87
2023-12-23T15:36:12.566Z,0.87
2023-12-23T15:39:39.270Z,0.86
2023-12-23T15:43:06.170Z,0.85
2023-12-23T15:46:33.111Z,0.85
2023-12-23T15:50:00.314Z,0.84
2023-12-23T15:53:27.507Z,0.82
2023-12-23T15:56:54.522Z,0.81
2023-12-23T16:00:22.556Z,0.80
2023-12-23T16:03:50.101Z,0.80
2023-12-23T16:07:17.195Z,0.83
2023-12-23T16:10:44.752Z,0.85
2023-12-23T16:14:12.304Z,0.87
2023-12-23T16:17:39.341Z,0.90
2023-12-23T16:21:07.374Z,0.96
2023-12-23T16:24:34.618Z,1.01
2023-12-23T16:28:01.669Z,1.07
2023-12-23T16:31:29.209Z,1.11
2023-12-23T16:34:57.370Z,1.13
2023-12-23T16:38:24.479Z,1.12
2023-12-23T16:41:51.346Z,1.06
2023-12-23T16:45:18.314Z,0.99
2023-12-23T16:48:45.658Z,0.90
2023-12-23T16:52:12.471Z,0.83
2023-12-23T16:55:39.198Z,0.77
2023-12-23T16:59:06.235Z,0.70
2023-12-23T17:02:33.248Z,0.65
2023-12-23T17:06:00.643Z,0.61
2023-12-23T17:09:27.544Z,0.58
2023-12-23T17:12:54.559Z,0.56
2023-12-23T17:16:22.246Z,0.59
2023-12-23T17:19:49.527Z,0.65
2023-12-23T17:23:16.204Z,0.74
2023-12-23T17:26:43.121Z,0.82
2023-12-23T17:30:12.067Z,0.87
2023-12-23T17:33:39.414Z,0.92
2023-12-23T17:37:06.828Z,0.99
2023-12-23T17:40:33.684Z,1.08
2023-12-23T17:44:00.982Z,1.13
2023-12-23T17:47:28.658Z,1.16
2023-12-23T17:51:00.018Z,1.20
2023-12-23T17:54:28.123Z,1.24
2023-12-23T17:57:55.464Z,1.30
2023-12-23T18:01:22.939Z,1.35
2023-12-23T18:04:50.593Z,1.39
2023-12-23T18:08:19.479Z,1.43
2023-12-23T18:11:46.751Z,1.47
2023-12-23T18:15:14.683Z,1.49
2023-12-23T18:18:41.657Z,1.52
2023-12-23T18:22:08.753Z,1.54
2023-12-23T18:25:35.617Z,1.54
2023-12-23T18:29:03.770Z,1.54
2023-12-23T18:32:30.564Z,1.53
2023-12-23T18:35:57.635Z,1.54
2023-12-23T18:39:25.083Z,1.53
2023-12-23T18:42:52.322Z,1.52
2023-12-23T18:46:19.639Z,1.53
2023-12-23T18:49:47.215Z,1.54
2023-12-23T18:53:14.096Z,1.55
2023-12-23T18:56:41.373Z,1.57
2023-12-23T19:00:10.739Z,1.57
2023-12-23T19:03:36.159Z,1.59
2023-12-23T19:07:03.175Z,1.60
2023-12-23T19:10:30.072Z,1.61
2023-12-23T19:13:56.962Z,1.61
2023-12-23T19:17:23.806Z,1.58
2023-12-23T19:20:55.174Z,1.55
2023-12-23T19:24:23.763Z,1.53
2023-12-23T19:27:51.884Z,1.53
2023-12-23T19:31:19.783Z,1.56
2023-12-23T19:34:46.738Z,1.60
2023-12-23T19:38:14.080Z,1.63
2023-12-23T19:41:41.358Z,1.68
2023-12-23T19:45:12.709Z,1.71
2023-12-23T19:48:40.077Z,1.74
2023-12-23T19:52:08.400Z,1.78
2023-12-23T19:55:37.337Z,1.81
2023-12-23T19:59:05.311Z,1.83
2023-12-23T20:02:32.455Z,1.83
2023-12-23T20:05:59.858Z,1.84
2023-12-23T20:09:27.240Z,1.85
2023-12-23T20:17:56.134Z,1.88
2023-12-23T20:21:35.192Z,1.90
2023-12-23T20:25:04.652Z,1.90
2023-12-23T20:28:31.655Z,1.89
2023-12-23T20:31:58.842Z,1.86
2023-12-23T20:35:28.466Z,1.84
2023-12-23T20:38:57.610Z,1.82
2023-12-23T20:42:32.374Z,1.79
2023-12-23T20:46:01.391Z,1.75
2023-12-23T20:49:30.604Z,1.71
2023-12-23T20:52:58.008Z,1.69
2023-12-23T20:56:26.573Z,1.68
2023-12-23T20:59:54.957Z,1.67
2023-12-23T21:03:23.986Z,1.68
2023-12-23T21:06:53.273Z,1.68
2023-12-23T21:10:20.220Z,1.68
2023-12-23T21:13:47.376Z,1.71
2023-12-23T21:17:14.731Z,1.71
2023-12-23T21:20:41.993Z,1.72
2023-12-23T21:24:11.098Z,1.70
2023-12-23T21:27:38.040Z,1.70
2023-12-23T21:31:05.015Z,1.70
2023-12-23T21:34:32.128Z,1.71
2023-12-23T21:38:01.240Z,1.72
2023-12-23T21:41:28.350Z,1.72
2023-12-23T21:44:59.758Z,1.72
2023-12-23T21:48:26.886Z,1.71
2023-12-23T21:51:53.632Z,1.72
2023-12-23T21:55:20.812Z,1.73
2023-12-23T21:58:48.605Z,1.73
2023-12-23T22:02:17.170Z,1.76
2023-12-23T22:05:44.533Z,1.76
2023-12-23T22:09:12.256Z,1.76
2023-12-23T22:12:39.177Z,1.76
2023-12-23T22:16:06.666Z,1.74
2023-12-23T22:19:33.785Z,1.71
2023-12-23T22:23:01.794Z,1.65
2023-12-23T22:26:29.162Z,1.60
2023-12-23T22:29:56.800Z,1.56
2023-12-23T22:33:25.787Z,1.55
2023-12-23T22:36:57.542Z,1.55
2023-12-23T22:40:25.379Z,1.57
2023-12-23T22:43:52.613Z,1.58
2023-12-23T22:47:28.291Z,1.60
2023-12-23T22:50:58.597Z,1.62
2023-12-23T22:54:31.644Z,1.64
2023-12-23T22:58:02.748Z,1.68
2023-12-23T23:01:34.488Z,1.71
2023-12-23T23:05:01.584Z,1.75
2023-12-23T23:08:28.670Z,1.79
2023-12-23T23:11:55.722Z,1.83
2023-12-23T23:15:22.790Z,1.86
2023-12-23T23:18:50.343Z,1.89
2023-12-23T23:22:24.784Z,1.91
2023-12-23T23:26:03.591Z,1.92
2023-12-23T23:29:34.873Z,1.93
2023-12-23T23:33:01.956Z,1.94
2023-12-23T23:36:29.367Z,1.94
2023-12-23T23:39:56.413Z,1.94
2023-12-23T23:43:24.072Z,1.93
2023-12-23T23:46:52.286Z,1.93
2023-12-23T23:50:19.498Z,1.93
2023-12-23T23:54:00.799Z,1.93
2023-12-23T23:57:31.451Z,1.92
